Time;durP1;ratioP1;P1;durP2;ratioP2;P2;SDS_P1;SDS_P2;PMS_P1;PMS_P2;Temp;Humidity;BMP_temperature;BMP_pressure;BME280_temperature;BME280_humidity;BME280_pressure;Samples;Min_cycle;Max_cycle;Signal;HPM_P1;HPM_P2
2022/12/31 00:01:20;;;;;;;20.83;15.73;;;12.90;99.90;;;;;;4589713;19;20115;-29
2022/12/31 00:02:52;;;;;;;21.23;16.50;;;12.90;99.90;;;;;;4590287;19;20413;-31
2022/12/31 00:04:24;;;;;;;20.73;15.20;;;12.90;99.90;;;;;;4591897;19;20006;-28
2022/12/31 00:05:56;;;;;;;20.10;14.48;;;12.90;99.90;;;;;;4592384;19;20026;-28
2022/12/31 00:07:28;;;;;;;21.47;15.97;;;12.90;99.90;;;;;;4591864;19;20511;-30
2022/12/31 00:09:01;;;;;;;20.85;15.88;;;12.90;99.90;;;;;;4591767;19;20011;-29
2022/12/31 00:10:40;;;;;;;21.93;15.73;;;12.90;99.90;;;;;;4591775;19;20341;-27
2022/12/31 00:12:11;;;;;;;20.90;15.20;;;12.90;99.90;;;;;;4591632;19;20010;-28
2022/12/31 00:13:43;;;;;;;23.85;16.90;;;12.90;99.90;;;;;;4591429;19;20018;-28
2022/12/31 00:15:14;;;;;;;;;;;12.90;99.90;;;;;;4592681;19;20010;-27
2022/12/31 00:16:45;;;;;;;24.17;16.50;;;12.90;99.90;;;;;;4591357;19;19937;-29
2022/12/31 00:18:16;;;;;;;24.13;15.95;;;12.90;99.90;;;;;;4591781;19;20015;-32
2022/12/31 00:19:47;;;;;;;21.10;17.08;;;12.90;99.90;;;;;;4590401;19;20509;-30
2022/12/31 00:21:18;;;;;;;25.25;17.25;;;12.90;99.90;;;;;;4591216;19;20015;-35
2022/12/31 00:22:50;;;;;;;22.90;17.17;;;12.80;99.90;;;;;;4591583;19;20007;-33
2022/12/31 06:09:24;;;;;;;9.63;6.40;;;12.80;99.90;;;;;;4592606;19;20029;-29
2022/12/31 06:10:56;;;;;;;10.63;6.70;;;12.80;99.90;;;;;;4594135;19;20021;-30
2022/12/31 06:12:29;;;;;;;8.10;5.90;;;12.80;99.90;;;;;;4595815;19;20025;-29
2022/12/31 06:14:00;;;;;;;10.73;6.93;;;12.80;99.90;;;;;;4594166;19;20472;-32
2022/12/31 06:15:35;;;;;;;10.33;6.60;;;12.80;99.90;;;;;;4592894;19;20013;-32
2022/12/31 06:17:06;;;;;;;8.87;6.27;;;12.80;99.90;;;;;;4594099;19;20091;-28
2022/12/31 06:18:37;;;;;;;10.95;6.38;;;12.80;99.90;;;;;;4596036;19;20033;-27
2022/12/31 06:20:08;;;;;;;8.32;6.10;;;12.80;99.90;;;;;;4593847;19;20025;-28
2022/12/31 06:21:40;;;;;;;9.23;6.03;;;12.90;99.90;;;;;;4593562;19;20022;-27
2022/12/31 06:23:11;;;;;;;9.63;6.22;;;12.80;99.90;;;;;;4594821;19;19998;-28
2022/12/31 06:24:44;;;;;;;8.50;6.43;;;12.80;99.90;;;;;;4592434;19;20014;-30
2022/12/31 06:26:16;;;;;;;9.57;6.60;;;12.80;99.90;;;;;;4592932;19;20047;-26
2022/12/31 06:27:46;;;;;;;8.93;6.35;;;12.80;99.90;;;;;;4593724;19;20010;-29
2022/12/31 06:29:18;;;;;;;8.05;5.97;;;12.80;99.90;;;;;;4593127;19;20018;-32
2022/12/31 06:30:49;;;;;;;7.68;5.53;;;12.80;99.90;;;;;;4593638;19;20011;-29
2022/12/31 06:32:20;;;;;;;9.60;6.82;;;12.80;99.90;;;;;;4593453;19;20026;-32
2022/12/31 06:33:52;;;;;;;9.32;6.50;;;12.80;99.90;;;;;;4594213;19;20015;-33
2022/12/31 06:35:23;;;;;;;8.45;6.13;;;12.80;99.90;;;;;;4593938;19;20015;-30
2022/12/31 06:36:54;;;;;;;7.28;6.10;;;12.80;99.90;;;;;;4593224;19;20015;-32
2022/12/31 06:38:26;;;;;;;10.88;6.90;;;12.80;99.90;;;;;;4593683;19;20017;-34
2022/12/31 06:39:58;;;;;;;8.03;6.00;;;12.80;99.90;;;;;;4591283;19;20010;-31
2022/12/31 06:41:30;;;;;;;7.78;5.40;;;12.80;99.90;;;;;;4592781;19;20010;-30
2022/12/31 06:43:01;;;;;;;8.20;5.50;;;12.80;99.90;;;;;;4593032;19;20015;-27
2022/12/31 06:44:33;;;;;;;8.00;5.88;;;12.80;99.90;;;;;;4593821;19;20011;-33
2022/12/31 06:46:05;;;;;;;7.93;5.90;;;12.80;99.90;;;;;;4593924;19;20325;-31
2022/12/31 06:47:36;;;;;;;7.13;5.10;;;12.90;99.90;;;;;;4593095;19;20006;-31
2022/12/31 06:49:08;;;;;;;;;;;12.80;99.90;;;;;;4592965;19;20464;-28
2022/12/31 06:50:39;;;;;;;8.23;5.60;;;12.90;99.90;;;;;;4593266;19;19922;-25
2022/12/31 06:52:11;;;;;;;7.93;5.40;;;12.80;99.90;;;;;;4595974;19;20018;-26
2022/12/31 06:53:43;;;;;;;9.25;5.95;;;12.80;99.90;;;;;;4592824;19;20029;-30
2022/12/31 06:55:14;;;;;;;7.85;5.32;;;12.90;99.90;;;;;;4592213;19;20482;-29
2022/12/31 06:56:46;;;;;;;8.83;5.67;;;12.90;99.90;;;;;;4592415;19;20014;-26
2022/12/31 06:58:17;;;;;;;8.82;5.50;;;12.90;99.90;;;;;;4593896;19;20070;-27
2022/12/31 06:59:51;;;;;;;8.37;5.97;;;12.90;99.90;;;;;;4593110;19;20014;-31
2022/12/31 07:01:29;;;;;;;;;;;13.00;99.90;;;;;;4592138;19;20373;-28
2022/12/31 07:03:19;;;;;;;6.13;4.87;;;13.00;99.90;;;;;;4593113;19;19933;-33
2022/12/31 07:05:01;;;;;;;7.27;4.73;;;13.10;99.90;;;;;;4593577;19;19998;-29
2022/12/31 07:06:43;;;;;;;7.97;5.38;;;13.20;99.90;;;;;;4593244;19;20034;-35
2022/12/31 07:08:17;;;;;;;8.13;5.50;;;13.30;99.90;;;;;;4592794;19;20030;-31
2022/12/31 07:12:12;;;;;;;6.77;4.83;;;13.40;99.90;;;;;;4592794;19;20010;-35
2022/12/31 07:13:52;;;;;;;7.33;4.90;;;13.50;99.90;;;;;;4590315;19;20018;-32
2022/12/31 07:15:41;;;;;;;7.47;4.77;;;13.60;99.90;;;;;;4590601;19;20468;-32
2022/12/31 07:17:25;;;;;;;8.20;6.03;;;13.60;99.90;;;;;;4590224;19;20267;-30
2022/12/31 07:19:08;;;;;;;9.30;6.67;;;13.10;99.90;;;;;;4589658;19;20096;-31
2022/12/31 07:20:40;;;;;;;8.53;6.37;;;11.70;99.90;;;;;;4590537;19;20432;-28
2022/12/31 07:22:15;;;;;;;9.53;6.60;;;11.10;99.90;;;;;;4590262;19;20448;-31
2022/12/31 07:23:47;;;;;;;8.83;6.40;;;10.90;99.90;;;;;;4590502;19;20445;-30
2022/12/31 07:25:18;;;;;;;8.32;6.30;;;10.80;99.90;;;;;;4590951;19;20440;-26
2022/12/31 07:26:49;;;;;;;9.13;6.90;;;10.80;99.90;;;;;;4590327;19;20501;-27
2022/12/31 07:28:52;;;;;;;9.75;7.20;;;10.80;99.90;;;;;;4590584;19;20014;-27
2022/12/31 07:30:52;;;;;;;8.53;6.70;;;10.80;99.90;;;;;;4591220;19;20026;-29
2022/12/31 07:32:55;;;;;;;9.40;7.27;;;10.70;99.90;;;;;;4590091;19;20499;-26
2022/12/31 07:34:35;;;;;;;;;;;10.70;99.90;;;;;;4590991;19;20567;-29
2022/12/31 07:36:12;;;;;;;9.73;7.07;;;10.70;99.90;;;;;;4590115;19;20290;-28
2022/12/31 07:37:52;;;;;;;10.17;6.87;;;10.70;99.90;;;;;;4589481;19;20498;-31
2022/12/31 07:39:31;;;;;;;9.20;6.20;;;10.70;99.90;;;;;;4588093;19;20545;-28
2022/12/31 07:41:20;;;;;;;9.80;6.63;;;10.70;99.90;;;;;;4589730;19;20467;-28
2022/12/31 07:43:22;;;;;;;9.93;6.27;;;10.70;99.90;;;;;;4589411;19;20555;-26
2022/12/31 07:45:26;;;;;;;8.90;6.83;;;10.70;99.90;;;;;;4589962;19;21048;-29
2022/12/31 07:47:02;;;;;;;11.18;7.32;;;10.70;99.90;;;;;;4589572;19;20432;-26
2022/12/31 07:48:34;;;;;;;10.47;6.60;;;10.80;99.90;;;;;;4589726;19;20010;-30
2022/12/31 07:50:10;;;;;;;9.07;6.53;;;10.70;99.90;;;;;;4589112;19;20476;-27
2022/12/31 07:51:41;;;;;;;9.80;7.37;;;10.80;99.90;;;;;;4591724;19;20022;-31
2022/12/31 07:53:14;;;;;;;9.20;6.47;;;10.70;99.90;;;;;;4589850;19;20451;-30
2022/12/31 07:54:47;;;;;;;9.77;6.23;;;10.70;99.90;;;;;;4589552;19;20502;-27
2022/12/31 07:56:20;;;;;;;8.50;6.30;;;10.80;99.90;;;;;;4589267;19;20437;-28
2022/12/31 07:58:05;;;;;;;8.77;6.78;;;10.80;99.90;;;;;;4588444;19;20583;-30
2022/12/31 07:59:44;;;;;;;9.17;6.83;;;10.80;99.90;;;;;;4589135;19;20014;-27
2022/12/31 08:01:27;;;;;;;9.10;6.53;;;10.80;99.90;;;;;;4589788;19;20448;-29
2022/12/31 08:03:45;;;;;;;9.40;6.57;;;10.80;99.90;;;;;;4589874;19;20424;-31
2022/12/31 08:05:47;;;;;;;9.60;7.13;;;10.80;99.90;;;;;;4588778;19;20457;-27
2022/12/31 08:07:44;;;;;;;9.75;7.78;;;10.80;99.90;;;;;;4589338;19;20449;-30
2022/12/31 08:09:18;;;;;;;9.73;6.50;;;10.80;99.90;;;;;;4589934;19;20533;-30
2022/12/31 08:11:08;;;;;;;10.00;7.00;;;10.80;99.90;;;;;;4590975;19;20475;-28
2022/12/31 08:12:57;;;;;;;11.00;7.07;;;10.90;99.90;;;;;;4587038;19;20444;-26
2022/12/31 08:14:29;;;;;;;9.63;7.13;;;10.90;99.90;;;;;;4590596;19;20510;-28
2022/12/31 08:16:01;;;;;;;9.15;7.55;;;10.90;99.90;;;;;;4589049;19;20461;-28
2022/12/31 08:17:32;;;;;;;11.85;7.80;;;10.90;99.90;;;;;;4588092;19;20011;-28
2022/12/31 08:19:04;;;;;;;12.07;10.15;;;10.80;99.90;;;;;;4587097;19;20014;-29
2022/12/31 08:20:42;;;;;;;16.07;13.07;;;10.90;99.90;;;;;;4589259;19;20508;-28
2022/12/31 08:22:28;;;;;;;11.43;8.07;;;10.90;99.90;;;;;;4588986;19;20468;-28
2022/12/31 08:24:27;;;;;;;9.93;7.73;;;11.00;99.90;;;;;;4590207;19;20444;-27
2022/12/31 08:26:09;;;;;;;10.63;7.13;;;11.00;99.90;;;;;;4588435;19;20530;-29
2022/12/31 08:28:04;;;;;;;12.93;8.50;;;10.90;99.90;;;;;;4587474;19;20465;-33
2022/12/31 08:29:43;;;;;;;11.63;8.17;;;11.00;99.90;;;;;;4585416;19;20014;-26
2022/12/31 08:31:29;;;;;;;11.43;7.53;;;11.00;99.90;;;;;;4588089;19;20476;-29
2022/12/31 08:33:13;;;;;;;10.43;7.37;;;11.00;99.90;;;;;;4588796;19;20567;-33
2022/12/31 08:35:21;;;;;;;10.50;7.40;;;11.00;99.90;;;;;;4588052;19;20485;-26
2022/12/31 08:37:22;;;;;;;11.57;9.07;;;11.00;99.90;;;;;;4587901;19;20606;-26
2022/12/31 08:39:25;;;;;;;10.57;7.67;;;11.00;99.90;;;;;;4586203;19;20507;-29
2022/12/31 08:41:07;;;;;;;9.33;7.00;;;11.00;99.90;;;;;;4586506;19;21714;-29
2022/12/31 08:43:11;;;;;;;10.07;7.93;;;11.00;99.90;;;;;;4589567;19;20513;-29
2022/12/31 08:44:51;;;;;;;10.53;7.53;;;11.00;99.90;;;;;;4589384;19;20023;-28
2022/12/31 08:46:37;;;;;;;10.60;8.20;;;11.10;99.90;;;;;;4588734;19;20576;-28
2022/12/31 08:48:31;;;;;;;11.83;8.60;;;11.10;99.90;;;;;;4588968;19;20484;-31
2022/12/31 08:50:03;;;;;;;10.40;6.93;;;11.10;99.90;;;;;;4586548;19;20488;-33
2022/12/31 08:51:34;;;;;;;9.27;6.18;;;11.10;99.90;;;;;;4588800;19;21045;-30
2022/12/31 08:53:06;;;;;;;10.63;7.22;;;11.10;99.90;;;;;;4589079;19;20022;-30
2022/12/31 08:54:38;;;;;;;10.95;8.27;;;11.10;99.90;;;;;;4588476;19;20011;-29
2022/12/31 08:56:20;;;;;;;19.42;11.20;;;11.10;99.90;;;;;;4589059;19;20472;-28
2022/12/31 08:58:14;;;;;;;10.73;8.37;;;11.10;99.90;;;;;;4588274;19;20006;-33
2022/12/31 09:00:01;;;;;;;10.30;7.47;;;11.20;99.90;;;;;;4586620;19;20539;-29
2022/12/31 09:01:54;;;;;;;9.47;7.77;;;11.20;99.90;;;;;;4588516;19;20487;-28
2022/12/31 09:03:41;;;;;;;10.37;7.40;;;11.20;99.90;;;;;;4589123;19;20532;-28
2022/12/31 09:05:21;;;;;;;10.13;7.87;;;11.20;99.90;;;;;;4588928;19;20921;-25
2022/12/31 09:07:02;;;;;;;9.63;7.27;;;11.20;99.90;;;;;;4588814;19;20567;-29
2022/12/31 09:08:43;;;;;;;8.65;7.20;;;11.20;99.90;;;;;;4588910;19;21363;-28
2022/12/31 09:10:18;;;;;;;8.60;7.30;;;11.20;99.90;;;;;;4585591;19;20395;-30
2022/12/31 09:11:59;;;;;;;9.73;7.00;;;11.20;99.90;;;;;;4588755;19;20437;-25
2022/12/31 16:09:29;;;;;;;9.67;7.33;;;13.00;99.90;;;;;;4592462;19;20042;-29
2022/12/31 16:11:03;;;;;;;10.13;7.97;;;12.80;99.90;;;;;;4590773;19;20029;-27
2022/12/31 16:12:35;;;;;;;9.13;7.40;;;12.40;99.90;;;;;;4591482;19;20074;-31
2022/12/31 16:14:06;;;;;;;9.05;6.05;;;12.10;99.90;;;;;;4590403;19;21071;-27
2022/12/31 16:15:41;;;;;;;8.60;6.07;;;12.10;99.90;;;;;;4592377;19;20363;-29
2022/12/31 16:17:32;;;;;;;8.43;7.00;;;12.10;99.90;;;;;;4590629;19;20425;-29
2022/12/31 16:19:26;;;;;;;7.80;6.05;;;12.20;99.90;;;;;;4591554;19;20443;-28
2022/12/31 16:20:59;;;;;;;9.37;7.10;;;12.20;99.90;;;;;;4590790;19;20365;-28
2022/12/31 16:22:36;;;;;;;9.53;7.37;;;12.30;99.90;;;;;;4590334;19;20544;-27
2022/12/31 16:24:28;;;;;;;7.67;6.13;;;12.30;99.90;;;;;;4591074;19;20518;-28
2022/12/31 16:26:01;;;;;;;10.10;6.97;;;12.40;99.90;;;;;;4590068;19;20432;-28
2022/12/31 16:27:33;;;;;;;8.47;6.03;;;12.40;99.90;;;;;;4591345;19;20015;-27
2022/12/31 16:29:05;;;;;;;8.40;6.03;;;12.40;99.90;;;;;;4590441;19;21184;-27
2022/12/31 16:30:37;;;;;;;7.40;5.22;;;12.40;99.90;;;;;;4590478;19;20444;-28
2022/12/31 16:32:32;;;;;;;8.73;6.20;;;12.50;99.90;;;;;;4590227;19;20073;-28
2022/12/31 16:34:20;;;;;;;9.33;6.03;;;12.50;99.90;;;;;;4587545;19;20988;-31
2022/12/31 16:35:55;;;;;;;8.73;6.27;;;12.50;99.90;;;;;;4590242;19;20468;-27
2022/12/31 16:37:27;;;;;;;9.67;6.57;;;12.50;99.90;;;;;;4590402;19;20473;-28
2022/12/31 16:39:25;;;;;;;10.40;8.30;;;12.50;99.90;;;;;;4590641;19;20025;-27
2022/12/31 16:41:02;;;;;;;17.37;13.30;;;12.50;99.90;;;;;;4588792;19;20025;-30
2022/12/31 16:42:34;;;;;;;13.40;9.60;;;12.50;99.90;;;;;;4588111;19;20491;-31
2022/12/31 16:44:22;;;;;;;9.90;7.78;;;12.50;99.90;;;;;;4588698;19;20424;-35
2022/12/31 16:46:12;;;;;;;9.47;7.03;;;12.50;99.90;;;;;;4588436;19;20002;-30
2022/12/31 16:47:44;;;;;;;9.27;6.57;;;12.50;99.90;;;;;;4588649;19;20436;-31
2022/12/31 16:49:18;;;;;;;8.35;6.18;;;12.50;99.90;;;;;;4588794;19;20445;-28
2022/12/31 16:50:52;;;;;;;8.33;6.23;;;12.50;99.90;;;;;;4587955;19;20015;-29
2022/12/31 16:52:24;;;;;;;9.10;6.77;;;12.50;99.90;;;;;;4588539;19;20034;-29
2022/12/31 16:53:55;;;;;;;9.40;7.27;;;12.60;99.90;;;;;;4588327;19;20528;-32
2022/12/31 16:55:28;;;;;;;9.15;6.78;;;12.50;99.90;;;;;;4588334;19;20015;-27
2022/12/31 16:56:59;;;;;;;9.67;6.30;;;12.50;99.90;;;;;;4588281;19;20397;-35
2022/12/31 16:58:34;;;;;;;9.02;6.38;;;12.60;99.90;;;;;;4586315;19;20018;-27
2022/12/31 17:00:06;;;;;;;9.17;6.20;;;12.60;99.90;;;;;;4591069;19;20078;-31
2022/12/31 17:01:37;;;;;;;8.85;6.30;;;12.70;99.90;;;;;;4588107;19;20007;-28
2022/12/31 17:03:24;;;;;;;11.90;6.47;;;12.80;99.90;;;;;;4587960;19;20014;-30
2022/12/31 17:04:55;;;;;;;9.87;7.77;;;13.00;99.90;;;;;;4589645;19;20026;-30
2022/12/31 17:06:27;;;;;;;15.43;9.20;;;13.10;99.90;;;;;;4587965;19;20421;-34
2022/12/31 17:07:58;;;;;;;9.43;6.25;;;13.50;99.90;;;;;;4590189;19;20010;-29
2022/12/31 17:11:27;;;;;;;7.77;5.10;;;13.80;99.90;;;;;;4586280;19;20373;-31
2022/12/31 17:13:00;;;;;;;9.30;6.37;;;13.80;99.90;;;;;;4588487;19;20017;-27
2022/12/31 17:14:31;;;;;;;7.30;4.57;;;14.00;99.90;;;;;;4587326;19;20018;-27
2022/12/31 17:16:02;;;;;;;8.82;6.30;;;14.10;99.90;;;;;;4589203;19;20118;-29
2022/12/31 17:17:36;;;;;;;14.60;9.98;;;14.20;99.90;;;;;;4587718;19;20014;-27
2022/12/31 17:19:33;;;;;;;12.43;8.27;;;14.30;99.90;;;;;;4588929;19;20349;-30
2022/12/31 17:21:08;;;;;;;12.27;8.82;;;14.40;99.90;;;;;;4588902;19;20077;-38
2022/12/31 17:22:42;;;;;;;13.43;8.65;;;14.40;99.90;;;;;;4589353;19;20469;-27
2022/12/31 17:24:14;;;;;;;15.45;8.15;;;14.40;99.90;;;;;;4588249;19;20027;-28
2022/12/31 17:25:45;;;;;;;11.10;7.97;;;14.40;99.90;;;;;;4589328;19;20010;-28
2022/12/31 17:27:16;;;;;;;12.95;8.95;;;14.50;99.90;;;;;;4589374;19;20048;-31
2022/12/31 17:28:49;;;;;;;12.20;7.85;;;14.60;99.90;;;;;;4589462;19;20472;-31
2022/12/31 17:30:28;;;;;;;10.60;7.03;;;14.60;99.90;;;;;;4589228;19;20011;-27
2022/12/31 17:32:05;;;;;;;7.72;6.40;;;14.60;99.90;;;;;;4589472;19;20027;-29
2022/12/31 17:33:37;;;;;;;8.52;5.93;;;14.60;99.90;;;;;;4591565;19;20411;-31
2022/12/31 17:35:30;;;;;;;9.80;6.00;;;14.60;99.90;;;;;;4589479;19;20077;-29
2022/12/31 17:37:08;;;;;;;10.00;6.15;;;14.70;99.90;;;;;;4589787;19;20034;-29
2022/12/31 17:38:40;;;;;;;8.85;6.43;;;14.80;99.90;;;;;;4588503;19;20014;-34
2022/12/31 17:40:15;;;;;;;;;;;14.80;99.90;;;;;;4591096;19;20015;-28
2022/12/31 17:41:48;;;;;;;12.00;7.45;;;14.80;99.90;;;;;;4588971;19;19943;-32
2022/12/31 17:43:21;;;;;;;8.57;5.63;;;15.00;99.90;;;;;;4588485;19;20393;-28
2022/12/31 17:44:55;;;;;;;10.35;6.28;;;14.80;99.90;;;;;;4587602;19;20074;-31
2022/12/31 17:46:25;;;;;;;8.85;6.00;;;14.60;99.90;;;;;;4595007;19;20011;-30
2022/12/31 17:47:58;;;;;;;9.40;5.78;;;14.40;99.90;;;;;;4593227;19;20010;-34
2022/12/31 17:49:30;;;;;;;9.02;5.97;;;14.20;99.90;;;;;;4593155;19;20019;-36
2022/12/31 17:51:01;;;;;;;7.97;5.50;;;14.10;99.90;;;;;;4593643;19;20342;-29
2022/12/31 17:52:36;;;;;;;8.85;5.53;;;14.00;99.90;;;;;;4594900;19;20030;-29
2022/12/31 17:54:13;;;;;;;8.88;5.82;;;13.90;99.90;;;;;;4592327;19;20026;-28
2022/12/31 17:55:48;;;;;;;12.90;8.70;;;13.80;99.90;;;;;;4593816;19;20015;-32
2022/12/31 17:57:23;;;;;;;12.23;8.68;;;13.70;99.90;;;;;;4592077;19;20023;-29
2022/12/31 17:58:54;;;;;;;10.50;6.57;;;13.70;99.90;;;;;;4593235;19;20070;-29
2022/12/31 18:00:26;;;;;;;9.90;6.78;;;13.70;99.90;;;;;;4591953;19;20021;-34
2022/12/31 18:01:59;;;;;;;8.25;6.40;;;13.70;99.90;;;;;;4592835;19;20025;-30
2022/12/31 18:03:31;;;;;;;8.82;5.68;;;13.70;99.90;;;;;;4594148;19;20011;-28
2022/12/31 18:05:12;;;;;;;9.30;5.88;;;13.70;99.90;;;;;;4592947;19;20460;-28
2022/12/31 18:06:44;;;;;;;6.85;4.97;;;13.70;99.90;;;;;;4593112;19;20014;-28
2022/12/31 18:08:17;;;;;;;10.10;6.35;;;13.70;99.90;;;;;;4593209;19;20010;-30
2022/12/31 18:09:48;;;;;;;10.23;6.97;;;13.70;99.90;;;;;;4593623;19;20034;-28
2022/12/31 18:51:52;;;;;;;11.27;7.13;;;13.50;99.90;;;;;;4592653;19;20019;-30
2022/12/31 18:53:24;;;;;;;10.90;7.50;;;13.40;99.90;;;;;;4594056;19;19995;-29
2022/12/31 18:54:55;;;;;;;11.93;7.72;;;13.50;99.90;;;;;;4593993;19;20017;-31
2022/12/31 18:56:26;;;;;;;12.65;9.02;;;13.50;99.90;;;;;;4590509;19;20022;-33
2022/12/31 18:57:58;;;;;;;11.07;7.28;;;13.40;99.90;;;;;;4591783;19;20018;-29
2022/12/31 18:59:30;;;;;;;;;;;13.50;99.90;;;;;;4594539;19;20074;-31
2022/12/31 19:01:01;;;;;;;11.47;8.03;;;13.40;99.90;;;;;;4593881;19;19915;-28
2022/12/31 19:02:32;;;;;;;10.55;7.40;;;13.50;99.90;;;;;;4591914;19;20022;-29
2022/12/31 19:04:14;;;;;;;10.88;7.80;;;13.50;99.90;;;;;;4592330;19;20048;-29
2022/12/31 19:05:48;;;;;;;11.07;8.15;;;13.50;99.90;;;;;;4593153;19;20006;-32
2022/12/31 19:07:19;;;;;;;9.30;6.43;;;13.50;99.90;;;;;;4592480;19;20010;-28
2022/12/31 19:08:51;;;;;;;10.30;6.55;;;13.50;99.90;;;;;;4592120;19;20040;-36
2022/12/31 19:10:22;;;;;;;11.65;6.57;;;13.50;99.90;;;;;;4590934;19;20011;-33
2022/12/31 19:11:55;;;;;;;10.55;7.70;;;13.50;99.90;;;;;;4590316;19;20078;-32
2022/12/31 19:13:26;;;;;;;11.48;7.78;;;13.50;99.90;;;;;;4592486;19;20086;-30
2022/12/31 19:14:57;;;;;;;10.15;6.90;;;13.50;99.90;;;;;;4592101;19;20030;-30
2022/12/31 19:16:28;;;;;;;13.05;8.13;;;13.50;99.90;;;;;;4591121;19;20472;-32
2022/12/31 19:18:00;;;;;;;12.80;8.65;;;13.50;99.90;;;;;;4592180;19;20021;-30
2022/12/31 19:19:31;;;;;;;16.10;12.43;;;13.50;99.90;;;;;;4591141;19;20036;-29
2022/12/31 19:21:03;;;;;;;24.52;19.85;;;13.40;99.90;;;;;;4593652;19;20420;-28
2022/12/31 19:22:34;;;;;;;16.75;11.50;;;13.40;99.90;;;;;;4592944;19;20081;-30
2022/12/31 19:24:21;;;;;;;12.32;7.93;;;13.40;99.90;;;;;;4593111;19;20457;-34
2022/12/31 19:25:52;;;;;;;12.05;9.50;;;13.40;99.90;;;;;;4592945;19;20039;-29
2022/12/31 19:27:25;;;;;;;11.95;10.35;;;13.40;99.90;;;;;;4592062;19;20018;-29
2022/12/31 19:28:56;;;;;;;11.03;8.27;;;13.40;99.90;;;;;;4590472;19;20033;-33
2022/12/31 19:30:30;;;;;;;10.25;8.32;;;13.40;99.90;;;;;;4593792;19;20014;-29
2022/12/31 19:32:01;;;;;;;10.83;8.57;;;13.40;99.90;;;;;;4592122;19;20006;-30
2022/12/31 19:33:32;;;;;;;8.68;7.07;;;13.40;99.90;;;;;;4591405;19;20037;-29
2022/12/31 19:35:04;;;;;;;9.35;7.18;;;13.40;99.90;;;;;;4590908;19;20049;-30
2022/12/31 19:36:35;;;;;;;;;;;13.40;99.90;;;;;;4591679;19;20048;-29
2022/12/31 19:38:19;;;;;;;10.98;7.60;;;13.40;99.90;;;;;;4592165;19;20325;-38
2022/12/31 19:39:51;;;;;;;9.88;7.30;;;13.50;99.90;;;;;;4591837;19;20020;-31
2022/12/31 19:41:22;;;;;;;10.80;6.97;;;13.50;99.90;;;;;;4592482;19;20464;-28
2022/12/31 19:42:54;;;;;;;10.95;6.30;;;13.60;99.90;;;;;;4591131;19;20015;-29
2022/12/31 19:44:25;;;;;;;9.43;6.35;;;13.50;99.90;;;;;;4591276;19;20018;-31
2022/12/31 19:45:57;;;;;;;11.93;7.25;;;13.50;99.90;;;;;;4591368;19;20015;-34
2022/12/31 19:47:29;;;;;;;10.65;7.80;;;13.50;99.90;;;;;;4591079;19;20042;-29
2022/12/31 19:49:00;;;;;;;11.55;8.27;;;13.50;99.90;;;;;;4590862;19;20022;-29
2022/12/31 19:50:31;;;;;;;11.52;8.15;;;13.50;99.90;;;;;;4590327;19;20066;-34
2022/12/31 19:53:50;;;;;;;11.47;7.27;;;13.50;99.90;;;;;;4591814;19;20013;-29
2022/12/31 19:55:23;;;;;;;8.17;6.07;;;13.50;99.90;;;;;;4591747;19;20007;-29
2022/12/31 19:56:54;;;;;;;10.25;7.60;;;13.50;99.90;;;;;;4590990;19;20021;-34
2022/12/31 19:58:26;;;;;;;13.20;9.15;;;13.50;99.90;;;;;;4589894;19;20021;-31
2022/12/31 19:59:57;;;;;;;11.10;8.73;;;13.50;99.90;;;;;;4590131;19;20027;-34
2022/12/31 20:01:28;;;;;;;12.05;8.52;;;13.60;99.90;;;;;;4592468;19;20468;-38
2022/12/31 20:02:59;;;;;;;11.15;8.63;;;13.60;99.90;;;;;;4591821;19;20010;-29
2022/12/31 20:04:32;;;;;;;11.32;8.48;;;13.60;99.90;;;;;;4591624;19;20524;-32
2022/12/31 20:06:07;;;;;;;10.15;7.97;;;13.60;99.90;;;;;;4590565;19;20015;-29
2022/12/31 20:07:38;;;;;;;11.95;8.00;;;13.60;99.90;;;;;;4589913;19;20014;-28
2022/12/31 20:09:10;;;;;;;10.55;7.05;;;13.50;99.90;;;;;;4590888;19;20014;-31
2022/12/31 20:10:41;;;;;;;;;;;13.60;99.90;;;;;;4590454;19;20018;-36
2022/12/31 20:12:13;;;;;;;8.77;5.65;;;13.60;99.90;;;;;;4590404;19;19935;-34
2022/12/31 20:13:45;;;;;;;8.95;5.55;;;13.50;99.90;;;;;;4589970;19;20015;-29
2022/12/31 20:15:17;;;;;;;10.88;7.50;;;13.50;99.90;;;;;;4592627;19;20022;-39
2022/12/31 20:16:48;;;;;;;11.10;6.35;;;13.50;99.90;;;;;;4592276;19;20007;-33
2022/12/31 20:18:21;;;;;;;10.73;6.97;;;13.50;99.90;;;;;;4590509;19;20035;-31
2022/12/31 20:19:53;;;;;;;8.50;5.70;;;13.50;99.90;;;;;;4591140;19;20078;-29
2022/12/31 20:21:25;;;;;;;9.68;6.47;;;13.40;99.90;;;;;;4590670;19;20006;-29
2022/12/31 20:22:57;;;;;;;9.30;6.10;;;13.50;99.90;;;;;;4589436;19;20010;-31
2022/12/31 20:24:28;;;;;;;9.50;6.38;;;13.50;99.90;;;;;;4589660;19;20483;-30
2022/12/31 20:26:00;;;;;;;7.60;5.43;;;13.50;99.90;;;;;;4589723;19;20025;-34
2022/12/31 20:27:32;;;;;;;9.13;6.30;;;13.50;99.90;;;;;;4589877;19;20014;-29
2022/12/31 20:29:03;;;;;;;8.10;5.75;;;13.50;99.90;;;;;;4591776;19;20014;-28
2022/12/31 20:30:37;;;;;;;7.45;5.40;;;13.40;99.90;;;;;;4591650;19;20670;-33
2022/12/31 20:32:09;;;;;;;9.77;5.82;;;13.40;99.90;;;;;;4591336;19;20018;-30
2022/12/31 20:33:40;;;;;;;9.82;5.75;;;13.30;99.90;;;;;;4591244;19;20376;-29
2022/12/31 20:35:11;;;;;;;8.40;5.20;;;13.40;99.90;;;;;;4589516;19;20031;-31
2022/12/31 20:36:42;;;;;;;10.82;5.70;;;13.40;99.90;;;;;;4589125;19;20015;-29
2022/12/31 20:38:14;;;;;;;8.88;5.53;;;13.40;99.90;;;;;;4591132;19;20035;-29
2022/12/31 20:39:45;;;;;;;;;;;13.40;99.90;;;;;;4593035;19;20018;-30
2022/12/31 20:41:18;;;;;;;8.80;6.13;;;13.40;99.90;;;;;;4591443;19;20332;-31
2022/12/31 20:42:51;;;;;;;9.03;6.33;;;13.30;99.90;;;;;;4591000;19;20018;-31
2022/12/31 20:44:22;;;;;;;10.40;6.37;;;13.30;99.90;;;;;;4590680;19;20015;-28
2022/12/31 20:45:53;;;;;;;8.70;6.10;;;13.30;99.90;;;;;;4590476;19;20014;-34
2022/12/31 20:47:24;;;;;;;8.57;5.20;;;13.30;99.90;;;;;;4588786;19;20022;-34
2022/12/31 20:48:58;;;;;;;7.75;5.43;;;13.30;99.90;;;;;;4588967;19;20334;-28
2022/12/31 20:50:29;;;;;;;10.05;5.68;;;13.30;99.90;;;;;;4589578;19;20361;-30
2022/12/31 20:52:00;;;;;;;8.02;6.03;;;13.20;99.90;;;;;;4589518;19;20006;-29
2022/12/31 22:28:40;;;;;;;8.93;5.70;;;13.10;99.90;;;;;;4586131;19;20018;-29
2022/12/31 22:30:11;;;;;;;9.97;4.93;;;13.10;99.90;;;;;;4589673;19;20027;-29
2022/12/31 22:31:43;;;;;;;9.38;5.25;;;13.10;99.90;;;;;;4593179;19;20011;-30
2022/12/31 22:33:15;;;;;;;7.70;4.70;;;13.10;99.90;;;;;;4592730;19;20006;-31
2022/12/31 22:34:47;;;;;;;8.00;4.40;;;13.10;99.90;;;;;;4592778;19;20419;-28
2022/12/31 22:36:20;;;;;;;8.93;4.90;;;13.00;99.90;;;;;;4593337;19;20041;-29
2022/12/31 22:37:52;;;;;;;7.70;3.77;;;13.00;99.90;;;;;;4593846;19;20010;-28
2022/12/31 22:39:24;;;;;;;8.07;4.47;;;13.00;99.90;;;;;;4593660;19;20372;-28
2022/12/31 22:41:02;;;;;;;6.05;3.95;;;13.00;99.90;;;;;;4593809;19;20010;-29
2022/12/31 22:42:34;;;;;;;7.60;4.83;;;13.00;99.90;;;;;;4594299;19;20504;-29
2022/12/31 22:44:05;;;;;;;7.03;4.28;;;13.00;99.90;;;;;;4594316;19;20014;-30
2022/12/31 22:45:37;;;;;;;6.53;3.80;;;13.00;99.90;;;;;;4593343;19;20020;-29
2022/12/31 22:47:08;;;;;;;8.82;4.65;;;13.00;99.90;;;;;;4593751;19;20010;-29
2022/12/31 22:48:40;;;;;;;7.78;4.07;;;13.00;99.90;;;;;;4594133;19;20341;-29
2022/12/31 22:50:11;;;;;;;6.80;3.90;;;13.00;99.90;;;;;;4592344;19;20087;-31
2022/12/31 22:51:43;;;;;;;7.87;4.60;;;12.90;99.90;;;;;;4593031;19;20018;-28
2022/12/31 22:53:14;;;;;;;6.68;3.72;;;12.90;99.90;;;;;;4594060;19;20410;-28
2022/12/31 22:54:45;;;;;;;7.15;4.28;;;12.90;99.90;;;;;;4593641;19;20018;-28
2022/12/31 22:56:17;;;;;;;8.05;4.20;;;12.90;99.90;;;;;;4593293;19;20472;-29
2022/12/31 22:57:48;;;;;;;7.60;3.57;;;12.90;99.90;;;;;;4591465;19;20014;-28
2022/12/31 22:59:20;;;;;;;7.17;3.97;;;12.90;99.90;;;;;;4593143;19;20010;-29
2022/12/31 23:00:51;;;;;;;6.90;4.15;;;12.90;99.90;;;;;;4593961;19;20017;-30
2022/12/31 23:02:23;;;;;;;7.93;4.68;;;12.90;99.90;;;;;;4592224;19;20034;-29
2022/12/31 23:03:55;;;;;;;11.13;5.60;;;12.90;99.90;;;;;;4593037;19;20481;-35
2022/12/31 23:05:32;;;;;;;22.57;18.73;;;12.90;99.90;;;;;;4593622;19;20487;-31
2022/12/31 23:07:04;;;;;;;24.97;21.43;;;12.80;99.90;;;;;;4593482;19;20011;-29
2022/12/31 23:08:35;;;;;;;15.57;13.48;;;12.90;99.90;;;;;;4593004;19;20017;-32
2022/12/31 23:11:59;;;;;;;25.67;23.07;;;13.00;99.90;;;;;;4593057;19;20010;-31
2022/12/31 23:23:08;;;;;;;14.10;10.70;;;13.00;99.90;;;;;;4592633;19;20014;-29
2022/12/31 23:24:39;;;;;;;12.70;8.73;;;13.00;99.90;;;;;;4592153;19;20014;-28
2022/12/31 23:26:12;;;;;;;9.33;7.10;;;13.00;99.90;;;;;;4593294;19;20032;-30
2022/12/31 23:27:43;;;;;;;8.45;6.13;;;13.00;99.90;;;;;;4590247;19;20015;-27
2022/12/31 23:31:04;;;;;;;10.23;6.83;;;13.10;99.90;;;;;;4592045;19;19999;-29
2022/12/31 23:32:36;;;;;;;11.73;6.80;;;13.10;99.90;;;;;;4592764;19;20010;-27